Terminal Aerodrome Forecast
Issued by NWS

Home | Current Version | Previous Version | Text Only | Print | Product List | Glossary On
Versions: 1 2 3 4 5 6 7 8 9 10 11 12 13
000
FTUS45 KGJT 231202 AAA
TAFMTJ
TAF AMD
KMTJ 231202Z 2312/2412 32006KT P6SM FEW030 BKN040
     FM231500 VRB03KT P6SM SCT060
     FM232000 31008KT P6SM FEW140
     FM240200 16005KT P6SM SKC=

USA.gov is the U.S. government's official web portal to all federal, state and local government web resources and services.